MET'MAP v2.0
soon released !

Expected late october,
this new version will be
more efficient, smarter,
and hosted on a brand new
server x3 powerfull...
...and still free !


Not compatible ?
Try the mobile version !

LOG IN : | Subscribe | Disclaimer | Who is Orbifly ? |
ICAO code :
Legend : VFR Marginal VFR IFR Intensive IFR Very Intensive IFR
Visi :
Ceiling :
>= 8 km
>= 3000ft
5 to 8 km
1000 to 3000 ft
1500m to 5 km
500 to 1000 ft
800 to 1500m
200 to 500 ft
< 800m
< 200 ft

METAR - LOWL Linz - 28 Nov 2020 11:38 UTC - Data Source NOAA   


- Airport Elevation : 978 ft
- IATA code : LNZ
- No reported NOTAMs.


LOWL - Linz

Latest METAR recorded : 2015/08/11 07:50 LOWL 110750Z 29004KT 250V330 CAVOK 24/14 Q1016 NOSIG
TAF AMD TAF LOWL
Valid from the 28 at 09:00 until the 29 at 06:00 UTC


280923Z 2809/2906 VRB02KT 1000 BKN002 TX01/2819Z TNM02/2906Z
TEMPO 2809/2810 0500 FZFG BKN001
BECMG 2810/2812 06004KT 5000 BKN005
TEMPO 2812/2906 09008KT 8000 BKN010
PROB30
TEMPO 2818/2906 9999 SCT010 BKN020

Source NOAA


MET'MAP, your aeronautical weather chart ! - Copyright ORBIFLY December 2007

Programming & Development : Alexandra Zaïnal
Co-Developer : Marc-Olivier Méhu
Technical & hardware support : Manuel Goepfert
Concept & Financing : Baudouin d'Aumeries